Time;durP1;ratioP1;P1;durP2;ratioP2;P2;SDS_P1;SDS_P2;PMS_P1;PMS_P2;Temp;Humidity;BMP_temperature;BMP_pressure;BME280_temperature;BME280_humidity;BME280_pressure;Samples;Min_cycle;Max_cycle;Signal;HPM_P1;HPM_P2
2021/07/13 00:01:03;;;;;;;10.32;7.50;;;;;;;19.17;100.00;100950.16;4976188;28;20566;-81
2021/07/13 00:03:29;;;;;;;10.40;7.55;;;;;;;19.14;100.00;100945.25;4963330;28;20034;-79
2021/07/13 00:05:55;;;;;;;10.25;8.05;;;;;;;19.12;100.00;100952.56;4980028;28;20046;-80
2021/07/13 00:08:25;;;;;;;10.80;7.60;;;;;;;19.08;100.00;100959.31;4965480;28;20034;-81
2021/07/13 00:10:50;;;;;;;8.82;7.38;;;;;;;19.07;100.00;100958.50;4971715;28;20534;-81
2021/07/13 00:13:16;;;;;;;10.85;7.28;;;;;;;19.03;100.00;100955.41;4963635;28;20037;-80
2021/07/13 00:15:43;;;;;;;10.05;7.65;;;;;;;19.00;100.00;100958.44;4983351;28;20038;-80
2021/07/13 00:18:09;;;;;;;7.95;7.25;;;;;;;18.99;100.00;100964.00;4984013;28;20049;-79
2021/07/13 00:20:35;;;;;;;11.98;7.47;;;;;;;18.97;100.00;100966.03;4961851;28;20039;-80
2021/07/13 00:23:02;;;;;;;9.20;7.28;;;;;;;18.98;100.00;100965.00;5003903;28;20500;-81
2021/07/13 00:25:29;;;;;;;12.70;7.90;;;;;;;18.95;100.00;100970.69;4963693;28;20366;-80
2021/07/13 00:27:55;;;;;;;11.63;8.25;;;;;;;18.91;100.00;100966.78;4952432;28;20126;-81
2021/07/13 00:30:22;;;;;;;10.88;8.20;;;;;;;18.87;100.00;100961.03;4995973;28;20042;-80
2021/07/13 00:32:48;;;;;;;11.63;8.45;;;;;;;18.85;100.00;100963.06;4980164;28;20092;-80
2021/07/13 00:35:14;;;;;;;12.88;8.85;;;;;;;18.82;100.00;100960.84;4979596;28;20117;-81
2021/07/13 00:37:42;;;;;;;12.50;8.50;;;;;;;18.82;100.00;100961.63;4981805;28;20061;-80
2021/07/13 00:40:08;;;;;;;11.05;8.05;;;;;;;18.82;100.00;100963.50;4969100;28;20130;-76
2021/07/13 00:42:34;;;;;;;12.80;8.85;;;;;;;18.73;100.00;100956.66;4989991;28;20034;-79
2021/07/13 00:45:00;;;;;;;15.73;9.15;;;;;;;18.65;100.00;100961.09;4976142;28;20041;-79
2021/07/13 00:47:27;;;;;;;9.32;8.38;;;;;;;18.62;100.00;100950.03;4976523;28;20042;-79
2021/07/13 00:49:53;;;;;;;16.45;9.05;;;;;;;18.65;100.00;100961.09;4973472;28;20035;-79
2021/07/13 00:52:19;;;;;;;15.52;8.98;;;;;;;18.68;100.00;100960.72;4967334;28;20042;-79
2021/07/13 00:54:47;;;;;;;9.82;8.65;;;;;;;18.66;100.00;100956.59;4990510;28;20039;-80
2021/07/13 00:57:16;;;;;;;12.77;8.98;;;;;;;18.65;100.00;100955.78;4959402;28;20102;-81
2021/07/13 00:59:42;;;;;;;14.52;9.48;;;;;;;18.79;100.00;100956.69;4976389;28;20050;-81
2021/07/13 01:02:10;;;;;;;12.45;10.15;;;;;;;18.81;100.00;100965.31;4958987;28;20026;-79
2021/07/13 01:04:47;;;;;;;10.77;8.52;;;;;;;18.80;100.00;100968.16;4977398;28;20030;-79
2021/07/13 01:07:31;;;;;;;9.70;8.75;;;;;;;18.84;100.00;100966.78;4977033;28;20116;-79
2021/07/13 01:10:15;;;;;;;15.40;8.80;;;;;;;18.83;100.00;100963.25;4977857;28;20492;-80
2021/07/13 01:12:47;;;;;;;16.55;9.35;;;;;;;18.87;100.00;100963.69;4958196;28;20035;-79
2021/07/13 01:15:18;;;;;;;11.10;8.87;;;;;;;18.85;100.00;100953.28;4972381;28;20043;-80
2021/07/13 01:17:54;;;;;;;14.53;9.77;;;;;;;18.88;100.00;100954.72;4993433;28;20596;-82
2021/07/13 01:20:44;;;;;;;9.95;9.02;;;;;;;18.87;100.00;100955.72;4978289;28;20326;-80
2021/07/13 01:23:30;;;;;;;10.68;9.57;;;;;;;18.88;100.00;100949.41;4966852;28;20031;-80
2021/07/13 01:26:05;;;;;;;10.48;9.38;;;;;;;18.86;100.00;100938.97;4993075;28;20500;-81
2021/07/13 01:28:36;;;;;;;12.85;9.32;;;;;;;18.85;100.00;100933.84;4961309;28;20117;-81
2021/07/13 01:31:05;;;;;;;12.63;9.00;;;;;;;18.87;100.00;100937.13;4962870;28;20049;-81
2021/07/13 01:33:32;;;;;;;12.50;9.55;;;;;;;18.87;100.00;100939.78;4978314;28;20417;-78
2021/07/13 01:36:29;;;;;;;10.23;8.82;;;;;;;18.91;100.00;100930.44;4978840;28;20042;-81
2021/07/13 01:38:58;;;;;;;11.35;9.95;;;;;;;18.97;100.00;100936.78;4959879;28;20050;-81
2021/07/13 01:41:25;;;;;;;10.35;9.35;;;;;;;18.96;100.00;100937.78;4961986;28;20041;-80
2021/07/13 01:43:53;;;;;;;11.93;9.18;;;;;;;18.88;100.00;100930.81;4974892;28;20038;-80
2021/07/13 01:46:20;;;;;;;12.63;9.48;;;;;;;18.86;100.00;100924.88;4961559;28;20042;-78
2021/07/13 01:48:49;;;;;;;15.07;9.27;;;;;;;18.86;100.00;100922.22;4976121;28;20034;-80
2021/07/13 01:51:16;;;;;;;11.80;10.18;;;;;;;18.87;100.00;100910.56;4987325;28;20119;-83
2021/07/13 01:53:44;;;;;;;12.90;9.88;;;;;;;18.83;100.00;100904.81;4978132;28;20034;-80
2021/07/13 01:56:11;;;;;;;12.45;9.52;;;;;;;18.79;100.00;100905.38;4993494;28;20034;-81
2021/07/13 01:58:38;;;;;;;10.77;9.27;;;;;;;18.78;100.00;100901.91;4960758;28;20042;-80
2021/07/13 02:01:10;;;;;;;11.55;9.80;;;;;;;18.73;100.00;100901.66;4976239;28;20049;-81
2021/07/13 02:03:37;;;;;;;;;;;;;;;18.66;100.00;100904.28;4959266;28;20517;-82
2021/07/13 02:06:04;;;;;;;11.48;9.45;;;;;;;18.57;100.00;100888.69;4955631;28;19921;-80
2021/07/13 02:08:30;;;;;;;12.18;9.48;;;;;;;18.52;100.00;100885.81;4978348;28;20049;-81
2021/07/13 02:10:56;;;;;;;12.43;9.82;;;;;;;18.54;100.00;100887.25;4957908;28;20725;-81
2021/07/13 02:13:24;;;;;;;11.25;9.30;;;;;;;18.49;100.00;100895.00;4976756;28;20035;-80
2021/07/13 02:15:50;;;;;;;13.82;9.18;;;;;;;18.45;100.00;100894.56;4976672;28;20034;-81
2021/07/13 02:18:15;;;;;;;13.10;9.32;;;;;;;18.44;100.00;100906.22;4994197;28;20034;-81
2021/07/13 02:20:41;;;;;;;14.05;9.07;;;;;;;18.35;100.00;100904.72;4975379;28;20046;-81
2021/07/13 02:23:07;;;;;;;10.77;9.68;;;;;;;18.27;100.00;100897.72;4983985;28;20034;-81
2021/07/13 02:25:33;;;;;;;11.25;9.60;;;;;;;18.24;100.00;100900.75;4991092;28;20030;-81
2021/07/13 02:28:29;;;;;;;11.05;9.40;;;;;;;18.18;100.00;100893.56;4963428;28;20046;-79
2021/07/13 02:31:00;;;;;;;13.45;10.02;;;;;;;18.12;100.00;100894.34;4972748;28;20614;-81
2021/07/13 02:33:51;;;;;;;17.73;9.80;;;;;;;18.10;100.00;100901.66;4957747;28;20042;-81
2021/07/13 02:36:20;;;;;;;15.73;10.82;;;;;;;18.08;100.00;100901.88;4952122;28;20042;-80
2021/07/13 02:38:47;;;;;;;18.70;11.02;;;;;;;18.05;100.00;100890.81;4990382;28;20034;-79
2021/07/13 02:41:15;;;;;;;17.08;11.02;;;;;;;17.93;100.00;100895.78;4960335;28;20035;-79
2021/07/13 02:43:42;;;;;;;16.55;10.90;;;;;;;17.93;100.00;100876.41;4968023;28;20031;-82
2021/07/13 02:46:09;;;;;;;18.00;11.48;;;;;;;18.00;100.00;100883.41;4982357;28;20038;-81
2021/07/13 02:48:37;;;;;;;16.25;10.73;;;;;;;18.01;100.00;100893.03;4991932;28;20065;-79
2021/07/13 02:51:04;;;;;;;18.33;10.85;;;;;;;18.01;100.00;100898.34;5008931;28;20172;-81
2021/07/13 02:53:31;;;;;;;17.75;11.93;;;;;;;18.06;100.00;100905.69;4976095;28;20046;-81
2021/07/13 02:55:57;;;;;;;19.45;12.60;;;;;;;18.14;100.00;100902.09;4989136;28;20081;-80
2021/07/13 02:58:23;;;;;;;16.98;13.63;;;;;;;18.26;100.00;100890.75;4993621;28;20038;-81
2021/07/13 03:00:50;;;;;;;24.40;17.40;;;;;;;18.31;100.00;100882.22;4963682;28;20026;-80
2021/07/13 03:03:17;;;;;;;25.05;17.02;;;;;;;18.35;100.00;100898.59;4959605;28;20030;-82
2021/07/13 03:05:42;;;;;;;21.20;14.95;;;;;;;18.29;100.00;100893.03;4980464;28;20033;-81
2021/07/13 03:08:08;;;;;;;22.20;16.25;;;;;;;18.38;100.00;100899.00;4991286;28;20118;-80
2021/07/13 03:10:34;;;;;;;18.73;15.48;;;;;;;18.36;100.00;100887.75;4975244;28;20038;-79
2021/07/13 03:13:00;;;;;;;24.05;14.82;;;;;;;18.36;100.00;100894.91;4954564;28;20421;-78
2021/07/13 03:15:30;;;;;;;18.60;15.52;;;;;;;18.37;100.00;100896.56;4975187;28;20130;-78
2021/07/13 03:17:56;;;;;;;23.23;16.77;;;;;;;18.36;100.00;100897.56;4975628;28;20081;-78
2021/07/13 03:20:22;;;;;;;18.98;14.60;;;;;;;18.37;100.00;100897.38;4991027;28;20041;-80
2021/07/13 03:22:50;;;;;;;15.52;13.93;;;;;;;18.32;100.00;100891.00;4959042;28;20034;-80
2021/07/13 03:25:21;;;;;;;18.08;13.30;;;;;;;18.35;100.00;100901.25;4959254;28;20724;-79
2021/07/13 03:27:50;;;;;;;20.85;13.68;;;;;;;18.34;100.00;100896.94;4955890;28;20034;-81
2021/07/13 03:30:16;;;;;;;14.90;11.90;;;;;;;18.28;100.00;100891.38;4994703;28;20049;-80
2021/07/13 03:32:42;;;;;;;15.70;13.00;;;;;;;18.30;100.00;100896.50;4968039;28;20037;-80
2021/07/13 03:35:09;;;;;;;19.63;13.95;;;;;;;18.25;100.00;100902.41;4968282;28;20037;-81
2021/07/13 03:37:36;;;;;;;19.80;13.82;;;;;;;18.23;100.00;100895.63;4961923;28;20507;-81
2021/07/13 03:40:03;;;;;;;19.90;14.77;;;;;;;18.28;100.00;100903.84;4994454;28;20026;-79
2021/07/13 03:42:28;;;;;;;18.00;14.50;;;;;;;18.31;100.00;100900.81;4944170;28;20401;-80
2021/07/13 03:44:54;;;;;;;18.35;15.07;;;;;;;18.28;100.00;100902.00;4986823;28;20037;-79
2021/07/13 03:47:20;;;;;;;18.58;14.07;;;;;;;18.31;100.00;100902.63;4962435;28;20061;-80
2021/07/13 03:49:49;;;;;;;18.33;14.55;;;;;;;18.37;100.00;100900.03;4995831;28;20711;-79
2021/07/13 03:52:14;;;;;;;15.75;13.75;;;;;;;18.37;100.00;100902.69;4958936;28;20030;-78
2021/07/13 03:54:40;;;;;;;19.90;14.85;;;;;;;18.37;100.00;100896.56;4961620;28;20042;-80
2021/07/13 03:57:06;;;;;;;14.57;13.07;;;;;;;18.41;100.00;100901.28;4959685;28;20489;-81
2021/07/13 03:59:31;;;;;;;21.10;14.70;;;;;;;18.40;100.00;100894.34;4948122;28;20081;-81
2021/07/13 04:01:57;;;;;;;24.52;15.52;;;;;;;18.41;100.00;100903.13;4978212;28;20146;-80
2021/07/13 04:04:23;;;;;;;21.80;16.90;;;;;;;18.45;100.00;100899.06;4976002;28;20035;-79
2021/07/13 04:06:49;;;;;;;22.15;16.88;;;;;;;18.47;100.00;100903.16;4963083;28;20046;-80
2021/07/13 04:09:14;;;;;;;23.02;16.35;;;;;;;18.47;100.00;100911.09;4978985;28;20755;-82
2021/07/13 04:11:40;;;;;;;27.27;17.70;;;;;;;18.44;100.00;100905.38;4959589;28;20039;-80
2021/07/13 04:14:05;;;;;;;19.20;16.27;;;;;;;18.48;100.00;100907.44;4977898;28;20545;-79
2021/07/13 04:16:31;;;;;;;22.48;17.20;;;;;;;18.52;100.00;100902.56;4953653;28;20042;-80
2021/07/13 04:18:58;;;;;;;21.25;15.30;;;;;;;18.58;100.00;100901.78;4983653;28;20041;-80
2021/07/13 04:21:23;;;;;;;23.27;16.23;;;;;;;18.63;100.00;100906.53;4975662;28;20062;-78
2021/07/13 04:23:49;;;;;;;24.13;16.83;;;;;;;18.64;100.00;100895.69;4974796;28;20132;-79
2021/07/13 04:26:15;;;;;;;27.02;16.98;;;;;;;18.67;100.00;100897.97;4977518;28;20060;-80
2021/07/13 04:28:40;;;;;;;23.90;15.98;;;;;;;18.80;100.00;100910.53;4976163;28;20034;-79
2021/07/13 04:31:06;;;;;;;20.35;15.80;;;;;;;18.88;100.00;100906.06;4975095;28;20038;-78
2021/07/13 04:33:31;;;;;;;20.80;15.70;;;;;;;18.94;100.00;100894.66;4994149;28;20042;-81
2021/07/13 04:35:57;;;;;;;18.70;15.25;;;;;;;19.11;100.00;100900.44;4977835;28;20034;-79
2021/07/13 04:38:24;;;;;;;24.63;14.95;;;;;;;19.16;100.00;100903.34;4961578;28;20045;-78
2021/07/13 04:40:49;;;;;;;21.35;15.55;;;;;;;19.15;100.00;100894.50;4961363;28;20038;-81
2021/07/13 04:43:15;;;;;;;20.88;15.50;;;;;;;19.25;100.00;100907.47;4961900;28;20076;-79
2021/07/13 04:45:41;;;;;;;18.33;14.68;;;;;;;19.36;100.00;100912.16;4992112;28;20061;-80
2021/07/13 04:48:06;;;;;;;19.92;15.73;;;;;;;19.39;100.00;100911.78;4992789;28;20049;-78
2021/07/13 04:50:32;;;;;;;22.52;16.13;;;;;;;19.31;100.00;100916.44;4961313;28;20531;-80
2021/07/13 04:52:58;;;;;;;21.73;17.15;;;;;;;19.28;100.00;100914.19;4958431;28;20031;-78
2021/07/13 04:55:23;;;;;;;23.13;16.42;;;;;;;19.26;100.00;100914.41;4984671;28;20626;-80
2021/07/13 04:57:49;;;;;;;25.42;16.25;;;;;;;19.34;100.00;100932.00;4958328;28;20523;-78
2021/07/13 05:00:15;;;;;;;23.10;16.08;;;;;;;19.42;100.00;100934.47;4974861;28;20042;-79
2021/07/13 05:02:41;;;;;;;19.60;16.60;;;;;;;19.51;100.00;100929.81;4971340;28;20037;-77
2021/07/13 05:05:10;;;;;;;19.73;15.93;;;;;;;19.68;100.00;100930.25;4973852;28;20468;-78
2021/07/13 05:07:43;;;;;;;17.80;14.82;;;;;;;19.86;100.00;100935.03;5016218;28;20034;-80
2021/07/13 05:10:16;;;;;;;18.20;13.75;;;;;;;19.91;100.00;100930.75;4990651;28;20058;-79
2021/07/13 05:12:43;;;;;;;18.20;15.27;;;;;;;19.94;100.00;100927.66;4961250;28;20483;-78
2021/07/13 05:15:11;;;;;;;19.48;13.70;;;;;;;19.96;100.00;100930.94;4954604;28;20038;-78
2021/07/13 05:17:38;;;;;;;15.30;13.65;;;;;;;20.00;100.00;100931.34;4990937;28;20735;-80
2021/07/13 05:20:05;;;;;;;16.55;14.05;;;;;;;19.97;100.00;100929.09;4992709;28;20088;-81
2021/07/13 05:22:31;;;;;;;19.95;13.98;;;;;;;19.87;100.00;100918.84;4964027;28;20374;-79
2021/07/13 05:24:57;;;;;;;19.17;13.55;;;;;;;19.96;100.00;100920.28;4980329;28;20097;-80
2021/07/13 05:27:23;;;;;;;19.67;13.95;;;;;;;20.01;100.00;100933.00;4990491;28;20476;-78
2021/07/13 05:29:49;;;;;;;19.75;14.15;;;;;;;20.10;100.00;100928.28;4991810;28;20073;-78
2021/07/13 05:32:14;;;;;;;17.63;15.32;;;;;;;20.16;100.00;100932.78;4991776;28;20046;-79
2021/07/13 05:34:42;;;;;;;16.00;13.00;;;;;;;20.29;100.00;100924.78;4988806;28;20031;-81
2021/07/13 05:37:08;;;;;;;15.70;12.82;;;;;;;20.45;100.00;100922.72;4965715;28;20061;-81
2021/07/13 05:39:33;;;;;;;16.58;12.90;;;;;;;20.61;100.00;100927.66;4997642;28;20030;-80
2021/07/13 05:41:59;;;;;;;13.65;12.13;;;;;;;20.65;100.00;100923.53;4972634;28;20718;-79
2021/07/13 05:44:25;;;;;;;16.85;12.25;;;;;;;20.82;99.77;100931.91;4971707;28;20062;-81
2021/07/13 05:46:50;;;;;;;18.88;12.60;;;;;;;20.70;99.10;100923.75;4961176;28;20104;-80
2021/07/13 05:49:16;;;;;;;16.10;13.40;;;;;;;20.72;98.70;100934.16;4976688;28;20030;-80
2021/07/13 05:51:43;;;;;;;15.77;12.80;;;;;;;20.67;98.83;100926.81;4958839;28;20041;-80
2021/07/13 05:54:09;;;;;;;13.32;11.93;;;;;;;20.83;98.28;100928.19;4990087;28;20046;-80
2021/07/13 05:56:34;;;;;;;13.40;10.85;;;;;;;20.97;97.48;100931.66;4990122;28;20054;-80
2021/07/13 05:59:00;;;;;;;15.77;11.48;;;;;;;21.19;95.11;100926.81;4975179;28;20066;-79
2021/07/13 06:01:25;;;;;;;15.00;10.68;;;;;;;21.26;94.52;100916.94;4956788;28;20108;-79
2021/07/13 06:03:51;;;;;;;12.30;11.10;;;;;;;21.29;94.67;100929.06;4969277;28;20545;-78
2021/07/13 06:06:16;;;;;;;16.70;11.55;;;;;;;21.26;95.48;100930.28;4962417;28;20033;-80
2021/07/13 06:08:42;;;;;;;14.75;11.00;;;;;;;21.28;95.55;100922.88;4956882;28;20063;-78
2021/07/13 06:11:07;;;;;;;16.73;12.23;;;;;;;21.21;95.26;100927.44;4956731;28;20078;-79
2021/07/13 06:13:33;;;;;;;12.88;10.73;;;;;;;21.35;94.12;100921.00;4983672;28;20492;-81
2021/07/13 06:15:59;;;;;;;12.02;10.63;;;;;;;21.50;93.18;100934.09;4977726;28;20053;-83
2021/07/13 06:18:24;;;;;;;11.38;10.27;;;;;;;21.57;93.78;100934.06;4975647;28;20043;-80
2021/07/13 06:20:50;;;;;;;11.27;10.07;;;;;;;21.76;92.19;100933.09;4967979;28;20441;-80
2021/07/13 06:23:16;;;;;;;13.75;10.25;;;;;;;21.91;92.33;100932.81;4979283;28;20030;-81
2021/07/13 06:25:42;;;;;;;12.00;10.23;;;;;;;22.03;90.10;100927.56;4959980;28;20045;-80
2021/07/13 06:28:08;;;;;;;13.05;9.98;;;;;;;22.04;90.38;100925.69;4991090;28;20031;-81
2021/07/13 06:30:34;;;;;;;13.80;9.80;;;;;;;22.12;90.67;100923.59;4977202;28;20030;-82
2021/07/13 06:33:00;;;;;;;10.23;9.23;;;;;;;22.31;86.86;100929.00;5004585;28;20491;-79
2021/07/13 06:35:26;;;;;;;10.73;9.73;;;;;;;22.33;86.57;100924.25;4994141;28;20378;-80
2021/07/13 06:37:52;;;;;;;13.88;9.60;;;;;;;22.46;85.42;100923.31;4974139;28;20065;-79
2021/07/13 06:40:18;;;;;;;10.82;9.45;;;;;;;22.57;84.98;100930.59;4957381;28;20037;-81
2021/07/13 06:42:45;;;;;;;14.20;9.98;;;;;;;22.74;84.65;100934.31;4978844;28;20038;-81
2021/07/13 06:45:11;;;;;;;12.85;9.75;;;;;;;22.67;86.33;100928.22;4993562;28;20038;-80
2021/07/13 06:47:36;;;;;;;14.07;9.73;;;;;;;22.90;83.93;100937.44;4972025;28;20045;-79
2021/07/13 06:50:04;;;;;;;11.70;9.38;;;;;;;22.94;85.22;100933.28;4973774;28;20391;-81
2021/07/13 06:52:30;;;;;;;10.82;9.77;;;;;;;23.01;81.93;100941.22;4960528;28;20053;-82
2021/07/13 06:54:56;;;;;;;11.95;9.73;;;;;;;23.02;84.23;100940.16;4972703;28;20038;-81
2021/07/13 06:57:23;;;;;;;13.52;9.82;;;;;;;23.02;82.81;100937.50;4971263;28;20073;-80
2021/07/13 06:59:49;;;;;;;12.90;9.30;;;;;;;22.97;86.04;100929.34;4942582;28;20038;-79
2021/07/13 07:02:15;;;;;;;11.98;9.30;;;;;;;23.05;86.50;100929.88;4981385;28;20026;-81
2021/07/13 07:04:41;;;;;;;10.55;9.18;;;;;;;23.23;84.13;100922.88;4991147;28;20022;-80
2021/07/13 07:07:06;;;;;;;10.77;9.35;;;;;;;23.18;82.35;100928.09;4943057;28;20045;-81
2021/07/13 07:09:32;;;;;;;10.82;8.38;;;;;;;23.36;83.04;100917.34;4985044;28;20363;-79
2021/07/13 07:11:57;;;;;;;9.35;8.55;;;;;;;23.36;81.59;100917.34;4984062;28;20112;-80
2021/07/13 07:14:23;;;;;;;10.70;9.60;;;;;;;23.57;81.16;100924.03;4974555;28;20034;-80
2021/07/13 07:16:48;;;;;;;10.50;8.20;;;;;;;23.69;79.93;100918.72;4971996;28;20436;-80
2021/07/13 07:19:14;;;;;;;9.25;8.35;;;;;;;23.88;80.24;100923.00;4994722;28;20089;-80
2021/07/13 07:21:39;;;;;;;8.80;7.90;;;;;;;24.12;81.25;100931.03;4976684;28;20092;-80
2021/07/13 07:24:05;;;;;;;10.30;9.13;;;;;;;24.15;79.90;100927.91;4963068;28;20538;-80
2021/07/13 07:26:30;;;;;;;9.38;8.48;;;;;;;24.31;75.03;100933.63;4986862;28;20177;-80
2021/07/13 07:28:56;;;;;;;10.48;8.77;;;;;;;24.44;77.72;100930.69;4956878;28;20034;-81
2021/07/13 07:31:21;;;;;;;8.52;7.47;;;;;;;24.54;76.98;100933.63;4956137;28;20508;-80
2021/07/13 07:33:47;;;;;;;10.32;8.60;;;;;;;24.58;75.21;100931.28;4989531;28;20030;-81
2021/07/13 07:36:13;;;;;;;10.95;8.50;;;;;;;24.57;75.11;100932.34;4957911;28;20130;-81
2021/07/13 07:38:40;;;;;;;9.77;8.88;;;;;;;24.46;76.23;100937.44;4988105;28;20129;-80
2021/07/13 07:41:06;;;;;;;11.25;8.23;;;;;;;24.56;75.66;100934.19;4972228;28;20139;-81
2021/07/13 07:43:31;;;;;;;9.38;8.45;;;;;;;24.43;76.12;100927.22;4971424;28;20513;-79
2021/07/13 07:45:57;;;;;;;9.50;8.05;;;;;;;24.42;74.29;100930.94;4991438;28;20042;-79
2021/07/13 07:48:22;;;;;;;12.23;8.52;;;;;;;24.70;74.43;100925.94;4973142;28;20035;-80
2021/07/13 07:50:48;;;;;;;9.85;8.85;;;;;;;24.96;72.90;100925.41;4990254;28;20511;-79
2021/07/13 07:53:13;;;;;;;11.48;8.32;;;;;;;25.07;70.90;100939.81;4976894;28;20084;-81
2021/07/13 07:55:39;;;;;;;10.60;9.10;;;;;;;25.06;72.06;100930.16;4955756;28;20062;-80
2021/07/13 07:58:04;;;;;;;11.68;8.60;;;;;;;25.23;70.31;100933.72;4961167;28;20033;-80
2021/07/13 08:00:30;;;;;;;9.48;8.38;;;;;;;25.12;70.37;100918.44;4980766;28;20057;-80
2021/07/13 08:02:56;;;;;;;10.32;8.73;;;;;;;25.05;69.32;100931.19;4991838;28;20513;-79
2021/07/13 08:05:24;;;;;;;8.95;8.05;;;;;;;25.15;70.29;100934.09;4944275;28;20040;-80
2021/07/13 08:07:50;;;;;;;9.40;8.40;;;;;;;25.16;73.02;100926.84;4974396;28;20042;-81
2021/07/13 08:10:16;;;;;;;10.15;8.18;;;;;;;25.04;71.12;100930.38;4973139;28;20041;-83
2021/07/13 08:12:43;;;;;;;13.23;8.57;;;;;;;25.14;71.94;100927.06;4977435;28;20062;-81
2021/07/13 08:15:10;;;;;;;10.85;7.97;;;;;;;25.22;70.59;100934.75;4955194;28;20043;-80
2021/07/13 08:17:35;;;;;;;9.07;7.88;;;;;;;25.47;68.69;100930.94;4974834;28;20034;-81
2021/07/13 08:20:02;;;;;;;10.13;8.13;;;;;;;25.57;71.25;100919.56;4975615;28;20106;-80
2021/07/13 08:22:30;;;;;;;11.65;8.27;;;;;;;25.78;66.62;100916.16;4993896;28;20034;-80
2021/07/13 08:24:55;;;;;;;9.65;7.63;;;;;;;25.82;68.21;100925.38;5003452;28;20034;-81
2021/07/13 08:27:21;;;;;;;8.32;7.15;;;;;;;25.99;67.40;100921.88;4979333;28;20038;-81
2021/07/13 08:29:47;;;;;;;7.25;6.55;;;;;;;25.92;67.32;100924.75;4993322;28;20096;-79
2021/07/13 08:32:13;;;;;;;8.75;7.68;;;;;;;26.00;67.86;100910.09;4976992;28;20057;-80
2021/07/13 08:34:38;;;;;;;8.80;7.20;;;;;;;26.05;66.56;100917.41;4995299;28;20150;-81
2021/07/13 08:37:05;;;;;;;8.00;7.20;;;;;;;25.93;64.55;100920.19;4998028;28;20044;-81
2021/07/13 08:39:32;;;;;;;8.95;7.22;;;;;;;25.68;69.01;100907.94;4954089;28;20046;-80
2021/07/13 08:41:59;;;;;;;8.18;7.40;;;;;;;25.37;68.42;100899.38;4977777;28;20128;-81
2021/07/13 08:44:25;;;;;;;9.00;7.50;;;;;;;25.25;66.74;100923.56;4988685;28;20037;-80
2021/07/13 08:46:51;;;;;;;8.55;7.03;;;;;;;25.64;67.70;100909.50;4992361;28;20030;-79
2021/07/13 08:49:17;;;;;;;8.10;7.22;;;;;;;26.21;65.68;100906.63;4980481;28;20104;-82
2021/07/13 08:51:43;;;;;;;7.47;6.68;;;;;;;26.44;64.20;100904.00;4982192;28;20037;-82
2021/07/13 08:54:09;;;;;;;7.93;7.22;;;;;;;26.50;63.16;100911.84;4979261;28;20038;-81
2021/07/13 08:56:36;;;;;;;7.38;6.70;;;;;;;26.65;61.34;100905.91;4963269;28;20035;-80
2021/07/13 08:59:04;;;;;;;7.07;6.28;;;;;;;26.93;59.10;100912.16;4959777;28;20034;-82
2021/07/13 09:01:30;;;;;;;9.75;6.80;;;;;;;26.87;59.00;100916.66;4996206;28;20034;-81
2021/07/13 09:04:03;;;;;;;7.10;6.45;;;;;;;26.66;58.85;100918.31;4983760;28;20521;-81
2021/07/13 09:06:48;;;;;;;7.30;6.60;;;;;;;26.65;59.35;100905.91;4981697;28;20038;-80
2021/07/13 09:09:34;;;;;;;7.07;6.47;;;;;;;26.20;61.70;100905.03;4959369;28;20033;-80
2021/07/13 09:12:09;;;;;;;6.60;6.10;;;;;;;25.92;62.50;100914.00;4991826;28;20526;-80
2021/07/13 09:14:51;;;;;;;8.45;7.55;;;;;;;25.59;62.83;100912.06;4975512;28;20200;-80
2021/07/13 09:17:42;;;;;;;6.22;5.63;;;;;;;25.67;63.17;100900.13;4975342;28;20042;-80
2021/07/13 09:20:13;;;;;;;7.57;6.88;;;;;;;26.16;62.50;100898.50;4957280;28;20066;-80
2021/07/13 09:23:03;;;;;;;6.72;6.13;;;;;;;26.38;59.52;100903.91;4970631;28;20043;-79
2021/07/13 09:25:34;;;;;;;7.07;6.35;;;;;;;26.21;60.21;100903.13;4977290;28;20046;-80
2021/07/13 09:28:14;;;;;;;11.13;6.50;;;;;;;25.78;62.84;100907.28;4972951;28;20042;-80
2021/07/13 09:30:48;;;;;;;9.40;7.40;;;;;;;25.31;63.41;100907.56;4959775;28;20040;-80
2021/07/13 09:33:20;;;;;;;7.63;6.93;;;;;;;25.01;67.12;100898.63;4973152;28;20030;-81
2021/07/13 09:36:09;;;;;;;8.47;7.23;;;;;;;24.93;66.99;100898.22;4972843;28;20069;-81
2021/07/13 09:38:41;;;;;;;7.32;6.60;;;;;;;25.41;63.24;100887.06;4969990;28;20060;-79
2021/07/13 09:41:09;;;;;;;7.18;6.47;;;;;;;25.62;63.02;100896.28;4964055;28;20454;-80
2021/07/13 09:43:48;;;;;;;7.53;6.65;;;;;;;25.97;60.08;100895.25;4959000;28;20405;-80
2021/07/13 09:46:25;;;;;;;6.43;5.93;;;;;;;25.86;61.67;100900.69;4963205;28;20042;-80
2021/07/13 09:49:09;;;;;;;7.63;6.28;;;;;;;25.68;61.51;100891.00;4972282;28;20041;-79
2021/07/13 09:51:35;;;;;;;7.68;6.28;;;;;;;25.49;63.95;100893.94;4961314;28;20050;-80
2021/07/13 09:54:01;;;;;;;6.93;6.32;;;;;;;25.69;62.88;100895.31;4953119;28;20035;-80
2021/07/13 09:56:40;;;;;;;7.03;6.43;;;;;;;25.51;63.69;100897.19;4968021;28;20034;-79
2021/07/13 09:59:06;;;;;;;7.40;6.70;;;;;;;25.69;65.59;100900.69;4992030;28;20161;-81
2021/07/13 10:01:32;;;;;;;8.82;6.55;;;;;;;26.41;59.93;100898.06;4975345;28;20121;-79
2021/07/13 10:03:58;;;;;;;7.53;5.60;;;;;;;26.87;57.47;100891.66;4991950;28;20027;-80
2021/07/13 10:06:24;;;;;;;6.22;5.72;;;;;;;27.10;55.56;100890.53;4991310;28;20113;-78
2021/07/13 10:08:50;;;;;;;5.72;5.10;;;;;;;26.50;55.90;100897.59;4974898;28;20034;-80
2021/07/13 10:11:16;;;;;;;5.97;5.47;;;;;;;26.75;58.12;100884.53;4972258;28;20054;-80
2021/07/13 10:13:43;;;;;;;5.45;4.95;;;;;;;27.26;55.53;100888.88;4949796;28;20172;-80
2021/07/13 10:16:10;;;;;;;5.30;4.90;;;;;;;26.90;54.64;100889.28;4940292;28;20403;-79
2021/07/13 10:18:35;;;;;;;5.45;5.05;;;;;;;26.80;54.08;100889.97;4940335;28;20503;-80
2021/07/13 10:21:01;;;;;;;6.13;5.53;;;;;;;26.93;53.76;100890.63;4956554;28;20034;-79
2021/07/13 10:23:28;;;;;;;5.70;5.20;;;;;;;27.42;54.79;100884.44;4988336;28;20026;-79
2021/07/13 10:25:54;;;;;;;8.13;5.25;;;;;;;27.81;55.48;100889.59;4957195;28;20081;-81
2021/07/13 10:28:30;;;;;;;4.95;4.50;;;;;;;27.84;54.37;100887.22;4959756;28;20100;-78
2021/07/13 10:30:56;;;;;;;7.55;5.40;;;;;;;27.47;55.63;100890.66;4971205;28;20042;-81
2021/07/13 10:33:37;;;;;;;7.22;5.65;;;;;;;26.70;57.03;100889.84;4992819;28;20065;-83
2021/07/13 10:36:29;;;;;;;5.97;5.47;;;;;;;26.51;58.64;100888.50;4988429;28;20030;-81
2021/07/13 10:39:26;;;;;;;5.90;5.50;;;;;;;26.67;57.95;100894.91;4957474;28;20057;-81
2021/07/13 10:41:54;;;;;;;7.30;6.00;;;;;;;27.16;58.80;100890.34;4968894;28;20438;-81
2021/07/13 10:44:48;;;;;;;6.32;5.20;;;;;;;27.91;53.48;100898.59;4987968;28;20023;-79
2021/07/13 10:47:30;;;;;;;5.40;4.72;;;;;;;28.58;54.92;100887.41;4974135;28;20307;-79
2021/07/13 10:50:18;;;;;;;5.78;5.00;;;;;;;29.02;50.71;100893.22;4965485;28;20117;-77
2021/07/13 10:52:55;;;;;;;6.93;5.45;;;;;;;28.79;51.57;100893.69;4989519;28;20026;-79
2021/07/13 10:55:29;;;;;;;6.82;5.45;;;;;;;28.59;52.96;100905.22;4972743;28;20539;-79
2021/07/13 10:58:20;;;;;;;5.80;5.28;;;;;;;28.66;54.94;100897.69;4974984;28;20057;-80
2021/07/13 11:01:07;;;;;;;5.70;5.15;;;;;;;28.04;55.15;100883.84;4992243;28;20039;-81
2021/07/13 11:03:32;;;;;;;6.72;6.00;;;;;;;27.92;58.27;100892.13;4966977;28;20120;-79
2021/07/13 11:05:59;;;;;;;5.80;5.32;;;;;;;28.54;53.75;100887.94;4972244;28;20134;-80
2021/07/13 11:08:59;;;;;;;5.88;5.22;;;;;;;28.57;56.36;100891.97;4984991;28;20456;-81
2021/07/13 11:11:28;;;;;;;8.68;5.38;;;;;;;28.54;52.22;100882.53;4955702;28;20080;-80
2021/07/13 11:13:59;;;;;;;6.55;4.82;;;;;;;27.84;56.83;100889.06;4956395;28;20568;-81
2021/07/13 11:16:27;;;;;;;4.78;4.38;;;;;;;27.53;54.99;100886.94;4957144;28;20395;-80
2021/07/13 11:18:53;;;;;;;6.28;4.50;;;;;;;27.58;54.55;100889.69;4978187;28;20454;-79
2021/07/13 11:21:26;;;;;;;5.03;4.63;;;;;;;27.55;52.61;100892.88;4991607;28;20040;-81